sensor_id;sensor_type;location;lat;lon;timestamp;temperature;humidity
39033;DHT22;24794;51.982;5.878;2023-04-06T00:00:32;8.00;80.00
39033;DHT22;24794;51.982;5.878;2023-04-06T00:01:34;8.00;80.00
39033;DHT22;24794;51.982;5.878;2023-04-06T00:02:35;8.00;80.00
39033;DHT22;24794;51.982;5.878;2023-04-06T00:03:36;8.00;79.90
39033;DHT22;24794;51.982;5.878;2023-04-06T00:04:37;8.00;80.00
39033;DHT22;24794;51.982;5.878;2023-04-06T00:05:37;8.00;80.00
39033;DHT22;24794;51.982;5.878;2023-04-06T00:06:38;8.00;80.10
39033;DHT22;24794;51.982;5.878;2023-04-06T00:07:38;8.00;80.10
39033;DHT22;24794;51.982;5.878;2023-04-06T00:08:39;8.00;80.10
39033;DHT22;24794;51.982;5.878;2023-04-06T00:09:39;8.00;80.10
39033;DHT22;24794;51.982;5.878;2023-04-06T00:10:40;8.00;80.20
39033;DHT22;24794;51.982;5.878;2023-04-06T00:11:41;8.00;80.20
39033;DHT22;24794;51.982;5.878;2023-04-06T00:12:41;8.00;80.20
39033;DHT22;24794;51.982;5.878;2023-04-06T00:13:42;8.00;80.20
39033;DHT22;24794;51.982;5.878;2023-04-06T00:14:42;8.00;80.30
39033;DHT22;24794;51.982;5.878;2023-04-06T00:15:43;8.00;80.30
39033;DHT22;24794;51.982;5.878;2023-04-06T00:16:43;8.00;80.20
39033;DHT22;24794;51.982;5.878;2023-04-06T00:17:44;8.00;80.10
39033;DHT22;24794;51.982;5.878;2023-04-06T00:18:45;8.00;80.10
39033;DHT22;24794;51.982;5.878;2023-04-06T00:19:46;8.00;80.80
39033;DHT22;24794;51.982;5.878;2023-04-06T00:20:46;7.90;80.30
39033;DHT22;24794;51.982;5.878;2023-04-06T00:21:47;7.90;80.30
39033;DHT22;24794;51.982;5.878;2023-04-06T00:22:47;7.90;80.30
39033;DHT22;24794;51.982;5.878;2023-04-06T00:23:48;7.90;80.30
39033;DHT22;24794;51.982;5.878;2023-04-06T00:24:48;7.90;80.40
39033;DHT22;24794;51.982;5.878;2023-04-06T00:25:49;8.00;80.60
39033;DHT22;24794;51.982;5.878;2023-04-06T00:26:50;7.90;80.60
39033;DHT22;24794;51.982;5.878;2023-04-06T00:27:50;7.90;80.60
39033;DHT22;24794;51.982;5.878;2023-04-06T00:28:51;7.90;80.60
39033;DHT22;24794;51.982;5.878;2023-04-06T00:29:52;7.90;80.70
39033;DHT22;24794;51.982;5.878;2023-04-06T00:30:53;7.90;80.60
39033;DHT22;24794;51.982;5.878;2023-04-06T00:31:55;7.90;80.60
39033;DHT22;24794;51.982;5.878;2023-04-06T00:32:56;7.90;80.70
39033;DHT22;24794;51.982;5.878;2023-04-06T00:33:57;7.90;80.80
39033;DHT22;24794;51.982;5.878;2023-04-06T00:34:58;7.90;80.90
39033;DHT22;24794;51.982;5.878;2023-04-06T00:35:59;7.90;80.90
39033;DHT22;24794;51.982;5.878;2023-04-06T00:36:59;7.80;80.90
39033;DHT22;24794;51.982;5.878;2023-04-06T00:38:00;7.90;80.90
39033;DHT22;24794;51.982;5.878;2023-04-06T00:39:01;7.80;80.90
39033;DHT22;24794;51.982;5.878;2023-04-06T00:40:02;7.80;80.90
39033;DHT22;24794;51.982;5.878;2023-04-06T00:41:03;7.80;80.90
39033;DHT22;24794;51.982;5.878;2023-04-06T00:42:10;7.80;80.90
39033;DHT22;24794;51.982;5.878;2023-04-06T00:43:13;7.80;81.00
39033;DHT22;24794;51.982;5.878;2023-04-06T00:44:14;7.80;80.90
39033;DHT22;24794;51.982;5.878;2023-04-06T00:45:14;7.80;81.00
39033;DHT22;24794;51.982;5.878;2023-04-06T00:46:15;7.80;81.00
39033;DHT22;24794;51.982;5.878;2023-04-06T00:47:15;7.80;81.10
39033;DHT22;24794;51.982;5.878;2023-04-06T00:48:16;7.70;81.10
39033;DHT22;24794;51.982;5.878;2023-04-06T00:49:17;7.70;81.10
39033;DHT22;24794;51.982;5.878;2023-04-06T00:50:17;7.70;81.10
39033;DHT22;24794;51.982;5.878;2023-04-06T00:51:18;7.70;81.20
39033;DHT22;24794;51.982;5.878;2023-04-06T00:52:19;7.60;81.30
39033;DHT22;24794;51.982;5.878;2023-04-06T00:53:19;7.70;81.40
39033;DHT22;24794;51.982;5.878;2023-04-06T00:54:20;7.60;81.40
39033;DHT22;24794;51.982;5.878;2023-04-06T00:55:21;7.60;81.40
39033;DHT22;24794;51.982;5.878;2023-04-06T00:56:21;7.70;81.60
39033;DHT22;24794;51.982;5.878;2023-04-06T00:57:23;7.70;81.60
39033;DHT22;24794;51.982;5.878;2023-04-06T00:58:24;7.70;81.60
39033;DHT22;24794;51.982;5.878;2023-04-06T00:59:27;7.60;81.50
39033;DHT22;24794;51.982;5.878;2023-04-06T01:00:28;7.70;81.50
39033;DHT22;24794;51.982;5.878;2023-04-06T01:01:28;7.60;81.50
39033;DHT22;24794;51.982;5.878;2023-04-06T01:02:29;7.60;81.60
39033;DHT22;24794;51.982;5.878;2023-04-06T01:03:30;7.60;81.60
39033;DHT22;24794;51.982;5.878;2023-04-06T01:04:31;7.60;81.60
39033;DHT22;24794;51.982;5.878;2023-04-06T01:05:36;7.70;81.70
39033;DHT22;24794;51.982;5.878;2023-04-06T01:06:40;7.70;81.70
39033;DHT22;24794;51.982;5.878;2023-04-06T01:07:41;7.60;82.30
39033;DHT22;24794;51.982;5.878;2023-04-06T01:08:41;7.60;81.70
39033;DHT22;24794;51.982;5.878;2023-04-06T01:09:42;7.60;81.80
39033;DHT22;24794;51.982;5.878;2023-04-06T01:10:42;7.60;81.90
39033;DHT22;24794;51.982;5.878;2023-04-06T01:11:43;7.60;82.00
39033;DHT22;24794;51.982;5.878;2023-04-06T01:12:44;7.60;82.00
39033;DHT22;24794;51.982;5.878;2023-04-06T01:13:44;7.60;82.10
39033;DHT22;24794;51.982;5.878;2023-04-06T01:14:45;7.60;82.20
39033;DHT22;24794;51.982;5.878;2023-04-06T01:15:46;7.50;82.20
39033;DHT22;24794;51.982;5.878;2023-04-06T01:16:46;7.50;82.30
39033;DHT22;24794;51.982;5.878;2023-04-06T01:17:47;7.50;82.30
39033;DHT22;24794;51.982;5.878;2023-04-06T01:18:48;7.50;82.50
39033;DHT22;24794;51.982;5.878;2023-04-06T01:19:48;7.50;82.50
39033;DHT22;24794;51.982;5.878;2023-04-06T01:20:54;7.50;82.60
39033;DHT22;24794;51.982;5.878;2023-04-06T01:21:55;7.50;82.60
39033;DHT22;24794;51.982;5.878;2023-04-06T01:22:55;7.50;82.70
39033;DHT22;24794;51.982;5.878;2023-04-06T01:23:56;7.50;83.30
39033;DHT22;24794;51.982;5.878;2023-04-06T01:24:56;7.50;82.80
39033;DHT22;24794;51.982;5.878;2023-04-06T01:25:57;7.50;82.80
39033;DHT22;24794;51.982;5.878;2023-04-06T01:26:57;7.40;82.80
39033;DHT22;24794;51.982;5.878;2023-04-06T01:27:58;7.50;82.90
39033;DHT22;24794;51.982;5.878;2023-04-06T01:28:58;7.50;82.90
39033;DHT22;24794;51.982;5.878;2023-04-06T01:29:59;7.40;82.90
39033;DHT22;24794;51.982;5.878;2023-04-06T01:30:59;7.50;83.00
39033;DHT22;24794;51.982;5.878;2023-04-06T01:32:00;7.40;82.90
39033;DHT22;24794;51.982;5.878;2023-04-06T01:33:01;7.40;82.90
39033;DHT22;24794;51.982;5.878;2023-04-06T01:34:01;7.40;83.00
39033;DHT22;24794;51.982;5.878;2023-04-06T01:35:02;7.40;83.00
39033;DHT22;24794;51.982;5.878;2023-04-06T01:36:03;7.40;83.10
39033;DHT22;24794;51.982;5.878;2023-04-06T01:37:04;7.50;83.20
39033;DHT22;24794;51.982;5.878;2023-04-06T01:38:04;7.50;83.20
39033;DHT22;24794;51.982;5.878;2023-04-06T01:39:05;7.50;83.20
39033;DHT22;24794;51.982;5.878;2023-04-06T01:40:06;7.50;83.30
39033;DHT22;24794;51.982;5.878;2023-04-06T01:41:07;7.40;83.20
39033;DHT22;24794;51.982;5.878;2023-04-06T01:42:08;7.40;83.20
39033;DHT22;24794;51.982;5.878;2023-04-06T01:43:09;7.40;83.20
39033;DHT22;24794;51.982;5.878;2023-04-06T01:44:09;7.40;83.30
39033;DHT22;24794;51.982;5.878;2023-04-06T01:45:10;7.40;83.40
39033;DHT22;24794;51.982;5.878;2023-04-06T01:46:11;7.40;83.40
39033;DHT22;24794;51.982;5.878;2023-04-06T01:47:11;7.40;83.40
39033;DHT22;24794;51.982;5.878;2023-04-06T01:48:12;7.40;83.40
39033;DHT22;24794;51.982;5.878;2023-04-06T01:49:12;7.40;83.50
39033;DHT22;24794;51.982;5.878;2023-04-06T01:50:13;7.40;83.50
39033;DHT22;24794;51.982;5.878;2023-04-06T01:51:14;7.30;84.10
39033;DHT22;24794;51.982;5.878;2023-04-06T01:52:14;7.30;83.60
39033;DHT22;24794;51.982;5.878;2023-04-06T01:53:15;7.40;83.70
39033;DHT22;24794;51.982;5.878;2023-04-06T01:54:16;7.30;83.60
39033;DHT22;24794;51.982;5.878;2023-04-06T01:55:17;7.30;83.60
39033;DHT22;24794;51.982;5.878;2023-04-06T01:56:17;7.30;83.70
39033;DHT22;24794;51.982;5.878;2023-04-06T01:57:18;7.30;83.80
39033;DHT22;24794;51.982;5.878;2023-04-06T01:58:18;7.30;83.80
39033;DHT22;24794;51.982;5.878;2023-04-06T01:59:19;7.30;83.80
39033;DHT22;24794;51.982;5.878;2023-04-06T02:00:20;7.30;83.80
39033;DHT22;24794;51.982;5.878;2023-04-06T02:01:20;7.30;83.80
39033;DHT22;24794;51.982;5.878;2023-04-06T02:02:21;7.30;83.90
39033;DHT22;24794;51.982;5.878;2023-04-06T02:03:22;7.20;84.00
39033;DHT22;24794;51.982;5.878;2023-04-06T02:04:22;7.30;84.10
39033;DHT22;24794;51.982;5.878;2023-04-06T02:05:23;7.30;84.10
39033;DHT22;24794;51.982;5.878;2023-04-06T02:06:23;7.30;84.10
39033;DHT22;24794;51.982;5.878;2023-04-06T02:07:24;7.30;84.10
39033;DHT22;24794;51.982;5.878;2023-04-06T02:08:24;7.30;84.10
39033;DHT22;24794;51.982;5.878;2023-04-06T02:09:25;7.30;84.10
39033;DHT22;24794;51.982;5.878;2023-04-06T02:10:25;7.20;84.10
39033;DHT22;24794;51.982;5.878;2023-04-06T02:11:26;7.30;84.20
39033;DHT22;24794;51.982;5.878;2023-04-06T02:12:27;7.20;84.20
39033;DHT22;24794;51.982;5.878;2023-04-06T02:13:27;7.20;84.20
39033;DHT22;24794;51.982;5.878;2023-04-06T02:14:28;7.20;84.30
39033;DHT22;24794;51.982;5.878;2023-04-06T02:15:28;7.20;84.30
39033;DHT22;24794;51.982;5.878;2023-04-06T02:16:29;7.30;84.50
39033;DHT22;24794;51.982;5.878;2023-04-06T02:17:29;7.20;84.50
39033;DHT22;24794;51.982;5.878;2023-04-06T02:18:30;7.20;84.60
39033;DHT22;24794;51.982;5.878;2023-04-06T02:19:31;7.20;84.60
39033;DHT22;24794;51.982;5.878;2023-04-06T02:20:31;7.20;84.60
39033;DHT22;24794;51.982;5.878;2023-04-06T02:21:32;7.20;84.60
39033;DHT22;24794;51.982;5.878;2023-04-06T02:22:33;7.20;84.60
39033;DHT22;24794;51.982;5.878;2023-04-06T02:23:34;7.20;84.60
39033;DHT22;24794;51.982;5.878;2023-04-06T02:24:34;7.20;84.60
39033;DHT22;24794;51.982;5.878;2023-04-06T02:25:35;7.20;84.60
39033;DHT22;24794;51.982;5.878;2023-04-06T02:26:36;7.20;84.70
39033;DHT22;24794;51.982;5.878;2023-04-06T02:27:37;7.20;84.80
39033;DHT22;24794;51.982;5.878;2023-04-06T02:28:37;7.20;84.80
39033;DHT22;24794;51.982;5.878;2023-04-06T02:29:38;7.20;84.80
39033;DHT22;24794;51.982;5.878;2023-04-06T02:30:38;7.20;84.80
39033;DHT22;24794;51.982;5.878;2023-04-06T02:31:39;7.20;84.90
39033;DHT22;24794;51.982;5.878;2023-04-06T02:32:39;7.20;84.90
39033;DHT22;24794;51.982;5.878;2023-04-06T02:33:40;7.20;84.90
39033;DHT22;24794;51.982;5.878;2023-04-06T02:34:40;7.20;84.90
39033;DHT22;24794;51.982;5.878;2023-04-06T02:35:41;7.20;84.90
39033;DHT22;24794;51.982;5.878;2023-04-06T02:36:42;7.30;85.00
39033;DHT22;24794;51.982;5.878;2023-04-06T02:37:42;7.20;84.90
39033;DHT22;24794;51.982;5.878;2023-04-06T02:38:43;7.20;85.00
39033;DHT22;24794;51.982;5.878;2023-04-06T02:39:43;7.20;85.00
39033;DHT22;24794;51.982;5.878;2023-04-06T02:40:44;7.20;85.00
39033;DHT22;24794;51.982;5.878;2023-04-06T02:41:45;7.20;85.00
39033;DHT22;24794;51.982;5.878;2023-04-06T02:42:45;7.20;85.10
39033;DHT22;24794;51.982;5.878;2023-04-06T02:43:46;7.20;85.20
39033;DHT22;24794;51.982;5.878;2023-04-06T02:44:46;7.20;85.20
39033;DHT22;24794;51.982;5.878;2023-04-06T02:45:47;7.20;85.20
39033;DHT22;24794;51.982;5.878;2023-04-06T02:46:47;7.20;85.20
39033;DHT22;24794;51.982;5.878;2023-04-06T02:47:48;7.20;85.30
39033;DHT22;24794;51.982;5.878;2023-04-06T02:48:48;7.20;85.20
39033;DHT22;24794;51.982;5.878;2023-04-06T02:49:49;7.20;85.20
39033;DHT22;24794;51.982;5.878;2023-04-06T02:50:50;7.20;85.20
39033;DHT22;24794;51.982;5.878;2023-04-06T02:51:50;7.20;85.20
39033;DHT22;24794;51.982;5.878;2023-04-06T02:52:52;7.20;85.00
39033;DHT22;24794;51.982;5.878;2023-04-06T02:53:53;7.20;85.00
39033;DHT22;24794;51.982;5.878;2023-04-06T02:54:53;7.20;85.00
39033;DHT22;24794;51.982;5.878;2023-04-06T02:55:54;7.20;85.10
39033;DHT22;24794;51.982;5.878;2023-04-06T02:56:56;7.20;85.10
39033;DHT22;24794;51.982;5.878;2023-04-06T02:57:56;7.20;85.10
39033;DHT22;24794;51.982;5.878;2023-04-06T02:58:57;7.20;85.20
39033;DHT22;24794;51.982;5.878;2023-04-06T02:59:57;7.20;85.20
39033;DHT22;24794;51.982;5.878;2023-04-06T03:00:58;7.20;85.30
39033;DHT22;24794;51.982;5.878;2023-04-06T03:01:58;7.20;85.30
39033;DHT22;24794;51.982;5.878;2023-04-06T03:02:59;7.20;85.30
39033;DHT22;24794;51.982;5.878;2023-04-06T03:03:59;7.20;85.30
39033;DHT22;24794;51.982;5.878;2023-04-06T03:05:00;7.20;85.30
39033;DHT22;24794;51.982;5.878;2023-04-06T03:06:01;7.20;85.30
39033;DHT22;24794;51.982;5.878;2023-04-06T03:07:01;7.20;85.30
39033;DHT22;24794;51.982;5.878;2023-04-06T03:08:02;7.20;85.30
39033;DHT22;24794;51.982;5.878;2023-04-06T03:09:03;7.20;85.40
39033;DHT22;24794;51.982;5.878;2023-04-06T03:10:04;7.20;85.40
39033;DHT22;24794;51.982;5.878;2023-04-06T03:11:05;7.20;85.40
39033;DHT22;24794;51.982;5.878;2023-04-06T03:12:05;7.20;85.40
39033;DHT22;24794;51.982;5.878;2023-04-06T03:13:06;7.20;85.40
39033;DHT22;24794;51.982;5.878;2023-04-06T03:14:07;7.20;85.30
39033;DHT22;24794;51.982;5.878;2023-04-06T03:15:08;7.20;85.20
39033;DHT22;24794;51.982;5.878;2023-04-06T03:16:09;7.30;85.20
39033;DHT22;24794;51.982;5.878;2023-04-06T03:17:09;7.20;85.20
39033;DHT22;24794;51.982;5.878;2023-04-06T03:18:10;7.30;85.20
39033;DHT22;24794;51.982;5.878;2023-04-06T03:19:10;7.30;85.20
39033;DHT22;24794;51.982;5.878;2023-04-06T03:20:11;7.30;85.10
39033;DHT22;24794;51.982;5.878;2023-04-06T03:21:12;7.30;85.10
39033;DHT22;24794;51.982;5.878;2023-04-06T03:22:13;7.30;85.10
39033;DHT22;24794;51.982;5.878;2023-04-06T03:23:13;7.30;85.20
39033;DHT22;24794;51.982;5.878;2023-04-06T03:24:14;7.30;85.20
39033;DHT22;24794;51.982;5.878;2023-04-06T03:25:14;7.30;85.20
39033;DHT22;24794;51.982;5.878;2023-04-06T03:26:15;7.30;85.10
39033;DHT22;24794;51.982;5.878;2023-04-06T03:27:16;7.40;85.10
39033;DHT22;24794;51.982;5.878;2023-04-06T03:28:16;7.30;85.10
39033;DHT22;24794;51.982;5.878;2023-04-06T03:29:17;7.40;85.10
39033;DHT22;24794;51.982;5.878;2023-04-06T03:30:17;7.40;85.10
39033;DHT22;24794;51.982;5.878;2023-04-06T03:31:18;7.40;85.10
39033;DHT22;24794;51.982;5.878;2023-04-06T03:32:18;7.40;85.00
39033;DHT22;24794;51.982;5.878;2023-04-06T03:33:19;7.40;84.80
39033;DHT22;24794;51.982;5.878;2023-04-06T03:34:20;7.40;84.70
39033;DHT22;24794;51.982;5.878;2023-04-06T03:35:20;7.40;84.60
39033;DHT22;24794;51.982;5.878;2023-04-06T03:36:21;7.40;84.70
39033;DHT22;24794;51.982;5.878;2023-04-06T03:37:21;7.40;84.70
39033;DHT22;24794;51.982;5.878;2023-04-06T03:38:22;7.40;84.70
39033;DHT22;24794;51.982;5.878;2023-04-06T03:39:22;7.40;84.80
39033;DHT22;24794;51.982;5.878;2023-04-06T03:40:23;7.40;84.70
39033;DHT22;24794;51.982;5.878;2023-04-06T03:41:23;7.40;84.60
39033;DHT22;24794;51.982;5.878;2023-04-06T03:42:24;7.40;84.50
39033;DHT22;24794;51.982;5.878;2023-04-06T03:43:25;7.40;84.50
39033;DHT22;24794;51.982;5.878;2023-04-06T03:44:25;7.40;84.40
39033;DHT22;24794;51.982;5.878;2023-04-06T03:45:26;7.40;85.10
39033;DHT22;24794;51.982;5.878;2023-04-06T03:46:26;7.40;84.30
39033;DHT22;24794;51.982;5.878;2023-04-06T03:47:27;7.40;84.20
39033;DHT22;24794;51.982;5.878;2023-04-06T03:48:27;7.40;84.20
39033;DHT22;24794;51.982;5.878;2023-04-06T03:49:28;7.30;84.10
39033;DHT22;24794;51.982;5.878;2023-04-06T03:50:28;7.30;84.10
39033;DHT22;24794;51.982;5.878;2023-04-06T03:51:29;7.30;84.10
39033;DHT22;24794;51.982;5.878;2023-04-06T03:52:29;7.30;84.00
39033;DHT22;24794;51.982;5.878;2023-04-06T03:53:30;7.30;84.00
39033;DHT22;24794;51.982;5.878;2023-04-06T03:54:31;7.30;83.90
39033;DHT22;24794;51.982;5.878;2023-04-06T03:55:31;7.30;84.00
39033;DHT22;24794;51.982;5.878;2023-04-06T03:56:32;7.30;84.00
39033;DHT22;24794;51.982;5.878;2023-04-06T03:57:32;7.30;84.00
39033;DHT22;24794;51.982;5.878;2023-04-06T03:58:33;7.30;83.90
39033;DHT22;24794;51.982;5.878;2023-04-06T03:59:34;7.30;83.90
39033;DHT22;24794;51.982;5.878;2023-04-06T04:00:34;7.30;83.90
39033;DHT22;24794;51.982;5.878;2023-04-06T04:01:35;7.30;83.80
39033;DHT22;24794;51.982;5.878;2023-04-06T04:02:35;7.30;83.70
39033;DHT22;24794;51.982;5.878;2023-04-06T04:03:36;7.30;83.70
39033;DHT22;24794;51.982;5.878;2023-04-06T04:04:36;7.30;83.70
39033;DHT22;24794;51.982;5.878;2023-04-06T04:05:37;7.30;83.70
39033;DHT22;24794;51.982;5.878;2023-04-06T04:06:37;7.30;83.60
39033;DHT22;24794;51.982;5.878;2023-04-06T04:07:38;7.30;83.60
39033;DHT22;24794;51.982;5.878;2023-04-06T04:08:38;7.30;83.50
39033;DHT22;24794;51.982;5.878;2023-04-06T04:09:39;7.30;84.10
39033;DHT22;24794;51.982;5.878;2023-04-06T04:10:40;7.30;83.50
39033;DHT22;24794;51.982;5.878;2023-04-06T04:11:40;7.30;83.50
39033;DHT22;24794;51.982;5.878;2023-04-06T04:12:41;7.30;83.50
39033;DHT22;24794;51.982;5.878;2023-04-06T04:13:41;7.30;83.50
39033;DHT22;24794;51.982;5.878;2023-04-06T04:14:42;7.30;83.50
39033;DHT22;24794;51.982;5.878;2023-04-06T04:15:44;7.30;83.60
39033;DHT22;24794;51.982;5.878;2023-04-06T04:16:44;7.30;83.70
39033;DHT22;24794;51.982;5.878;2023-04-06T04:17:45;7.30;83.80
39033;DHT22;24794;51.982;5.878;2023-04-06T04:18:47;7.30;83.80
39033;DHT22;24794;51.982;5.878;2023-04-06T04:19:48;7.30;83.80
39033;DHT22;24794;51.982;5.878;2023-04-06T04:20:49;7.30;83.80
39033;DHT22;24794;51.982;5.878;2023-04-06T04:21:50;7.30;84.10
39033;DHT22;24794;51.982;5.878;2023-04-06T04:22:50;7.30;83.70
39033;DHT22;24794;51.982;5.878;2023-04-06T04:23:51;7.30;83.70
39033;DHT22;24794;51.982;5.878;2023-04-06T04:24:53;7.30;83.60
39033;DHT22;24794;51.982;5.878;2023-04-06T04:25:53;7.20;83.70
39033;DHT22;24794;51.982;5.878;2023-04-06T04:26:54;7.20;83.70
39033;DHT22;24794;51.982;5.878;2023-04-06T04:27:55;7.20;83.70
39033;DHT22;24794;51.982;5.878;2023-04-06T04:28:56;7.20;83.80
39033;DHT22;24794;51.982;5.878;2023-04-06T04:29:56;7.20;83.80
39033;DHT22;24794;51.982;5.878;2023-04-06T04:30:57;7.20;83.80
39033;DHT22;24794;51.982;5.878;2023-04-06T04:31:57;7.20;83.80
39033;DHT22;24794;51.982;5.878;2023-04-06T04:32:58;7.20;83.70
39033;DHT22;24794;51.982;5.878;2023-04-06T04:33:59;7.20;83.70
39033;DHT22;24794;51.982;5.878;2023-04-06T04:35:00;7.20;83.90
39033;DHT22;24794;51.982;5.878;2023-04-06T04:37:03;7.20;84.00
39033;DHT22;24794;51.982;5.878;2023-04-06T04:38:04;7.20;84.10
39033;DHT22;24794;51.982;5.878;2023-04-06T04:39:05;7.20;84.20
39033;DHT22;24794;51.982;5.878;2023-04-06T04:40:06;7.20;84.10
39033;DHT22;24794;51.982;5.878;2023-04-06T04:41:07;7.20;84.00
39033;DHT22;24794;51.982;5.878;2023-04-06T04:42:07;7.20;84.00
39033;DHT22;24794;51.982;5.878;2023-04-06T04:43:08;7.20;84.00
39033;DHT22;24794;51.982;5.878;2023-04-06T04:44:08;7.10;83.90
39033;DHT22;24794;51.982;5.878;2023-04-06T04:45:09;7.10;84.00
39033;DHT22;24794;51.982;5.878;2023-04-06T04:46:10;7.10;84.00
39033;DHT22;24794;51.982;5.878;2023-04-06T04:47:11;7.20;84.00
39033;DHT22;24794;51.982;5.878;2023-04-06T04:48:11;7.20;84.00
39033;DHT22;24794;51.982;5.878;2023-04-06T04:49:12;7.20;84.00
39033;DHT22;24794;51.982;5.878;2023-04-06T04:50:12;7.20;84.00
39033;DHT22;24794;51.982;5.878;2023-04-06T04:51:13;7.10;84.00
39033;DHT22;24794;51.982;5.878;2023-04-06T04:52:13;7.10;84.10
39033;DHT22;24794;51.982;5.878;2023-04-06T04:53:14;7.10;84.20
39033;DHT22;24794;51.982;5.878;2023-04-06T04:54:15;7.20;84.30
39033;DHT22;24794;51.982;5.878;2023-04-06T04:55:15;7.20;84.30
39033;DHT22;24794;51.982;5.878;2023-04-06T04:56:17;7.10;84.30
39033;DHT22;24794;51.982;5.878;2023-04-06T04:57:18;7.20;84.30
39033;DHT22;24794;51.982;5.878;2023-04-06T04:58:18;7.10;84.30
39033;DHT22;24794;51.982;5.878;2023-04-06T04:59:20;7.20;84.30
39033;DHT22;24794;51.982;5.878;2023-04-06T05:00:20;7.10;84.30
39033;DHT22;24794;51.982;5.878;2023-04-06T05:01:21;7.10;84.30
39033;DHT22;24794;51.982;5.878;2023-04-06T05:02:21;7.10;84.40
39033;DHT22;24794;51.982;5.878;2023-04-06T05:03:25;7.10;85.10
39033;DHT22;24794;51.982;5.878;2023-04-06T05:04:26;7.10;84.50
39033;DHT22;24794;51.982;5.878;2023-04-06T05:05:26;7.10;84.50
39033;DHT22;24794;51.982;5.878;2023-04-06T05:06:27;7.10;84.50
39033;DHT22;24794;51.982;5.878;2023-04-06T05:07:27;7.10;84.50
39033;DHT22;24794;51.982;5.878;2023-04-06T05:08:28;7.10;84.50
39033;DHT22;24794;51.982;5.878;2023-04-06T05:09:29;7.10;84.50
39033;DHT22;24794;51.982;5.878;2023-04-06T05:10:31;7.10;84.50
39033;DHT22;24794;51.982;5.878;2023-04-06T05:11:31;7.10;84.50
39033;DHT22;24794;51.982;5.878;2023-04-06T05:12:32;7.10;84.50
39033;DHT22;24794;51.982;5.878;2023-04-06T05:13:33;7.10;84.50
39033;DHT22;24794;51.982;5.878;2023-04-06T05:14:33;7.10;84.50
39033;DHT22;24794;51.982;5.878;2023-04-06T05:15:34;7.10;84.50
39033;DHT22;24794;51.982;5.878;2023-04-06T05:16:40;7.10;84.50
39033;DHT22;24794;51.982;5.878;2023-04-06T05:17:41;7.10;84.50
39033;DHT22;24794;51.982;5.878;2023-04-06T05:18:41;7.10;84.50
39033;DHT22;24794;51.982;5.878;2023-04-06T05:19:42;7.10;84.60
39033;DHT22;24794;51.982;5.878;2023-04-06T05:20:43;7.10;84.60
39033;DHT22;24794;51.982;5.878;2023-04-06T05:21:44;7.20;84.70
39033;DHT22;24794;51.982;5.878;2023-04-06T05:22:44;7.20;84.70
39033;DHT22;24794;51.982;5.878;2023-04-06T05:23:45;7.20;84.80
39033;DHT22;24794;51.982;5.878;2023-04-06T05:24:45;7.20;84.80
39033;DHT22;24794;51.982;5.878;2023-04-06T05:25:46;7.20;84.80
39033;DHT22;24794;51.982;5.878;2023-04-06T05:26:46;7.20;84.80
39033;DHT22;24794;51.982;5.878;2023-04-06T05:27:47;7.20;84.80
39033;DHT22;24794;51.982;5.878;2023-04-06T05:28:47;7.20;84.70
39033;DHT22;24794;51.982;5.878;2023-04-06T05:29:49;7.20;84.70
39033;DHT22;24794;51.982;5.878;2023-04-06T05:30:49;7.20;84.70
39033;DHT22;24794;51.982;5.878;2023-04-06T05:31:51;7.20;84.60
39033;DHT22;24794;51.982;5.878;2023-04-06T05:32:51;7.20;84.50
39033;DHT22;24794;51.982;5.878;2023-04-06T05:33:52;7.30;84.40
39033;DHT22;24794;51.982;5.878;2023-04-06T05:34:52;7.20;84.40
39033;DHT22;24794;51.982;5.878;2023-04-06T05:35:53;7.30;84.40
39033;DHT22;24794;51.982;5.878;2023-04-06T05:36:53;7.30;84.40
39033;DHT22;24794;51.982;5.878;2023-04-06T05:37:54;7.30;84.50
39033;DHT22;24794;51.982;5.878;2023-04-06T05:38:55;7.30;84.50
39033;DHT22;24794;51.982;5.878;2023-04-06T05:39:56;7.30;84.50
39033;DHT22;24794;51.982;5.878;2023-04-06T05:40:56;7.30;84.50
39033;DHT22;24794;51.982;5.878;2023-04-06T05:41:57;7.30;84.50
39033;DHT22;24794;51.982;5.878;2023-04-06T05:42:57;7.30;84.50
39033;DHT22;24794;51.982;5.878;2023-04-06T05:43:58;7.40;84.50
39033;DHT22;24794;51.982;5.878;2023-04-06T05:44:58;7.40;84.50
39033;DHT22;24794;51.982;5.878;2023-04-06T05:45:59;7.40;84.30
39033;DHT22;24794;51.982;5.878;2023-04-06T05:47:00;7.40;84.30
39033;DHT22;24794;51.982;5.878;2023-04-06T05:48:01;7.40;84.30
39033;DHT22;24794;51.982;5.878;2023-04-06T05:49:02;7.30;84.20
39033;DHT22;24794;51.982;5.878;2023-04-06T05:50:03;7.40;84.30
39033;DHT22;24794;51.982;5.878;2023-04-06T05:51:03;7.30;84.20
39033;DHT22;24794;51.982;5.878;2023-04-06T05:52:06;7.40;84.30
39033;DHT22;24794;51.982;5.878;2023-04-06T05:53:07;7.40;84.30
39033;DHT22;24794;51.982;5.878;2023-04-06T05:54:07;7.40;84.20
39033;DHT22;24794;51.982;5.878;2023-04-06T05:55:10;7.40;84.30
39033;DHT22;24794;51.982;5.878;2023-04-06T05:56:11;7.40;84.30
39033;DHT22;24794;51.982;5.878;2023-04-06T05:57:11;7.40;84.40
39033;DHT22;24794;51.982;5.878;2023-04-06T05:58:12;7.30;84.40
39033;DHT22;24794;51.982;5.878;2023-04-06T05:59:13;7.30;84.40
39033;DHT22;24794;51.982;5.878;2023-04-06T06:00:13;7.40;84.60
39033;DHT22;24794;51.982;5.878;2023-04-06T06:01:14;7.40;84.60
39033;DHT22;24794;51.982;5.878;2023-04-06T06:02:15;7.40;84.60
39033;DHT22;24794;51.982;5.878;2023-04-06T06:03:16;7.40;84.60
39033;DHT22;24794;51.982;5.878;2023-04-06T06:04:17;7.40;84.70
39033;DHT22;24794;51.982;5.878;2023-04-06T06:05:17;7.40;84.70
39033;DHT22;24794;51.982;5.878;2023-04-06T06:06:18;7.50;84.90
39033;DHT22;24794;51.982;5.878;2023-04-06T06:07:18;7.50;84.90
39033;DHT22;24794;51.982;5.878;2023-04-06T06:08:19;7.50;84.80
39033;DHT22;24794;51.982;5.878;2023-04-06T06:09:19;7.50;84.80
39033;DHT22;24794;51.982;5.878;2023-04-06T06:10:20;7.50;84.80
39033;DHT22;24794;51.982;5.878;2023-04-06T06:11:20;7.50;84.70
39033;DHT22;24794;51.982;5.878;2023-04-06T06:12:21;7.50;84.60
39033;DHT22;24794;51.982;5.878;2023-04-06T06:13:22;7.50;84.50
39033;DHT22;24794;51.982;5.878;2023-04-06T06:14:23;7.50;84.50
39033;DHT22;24794;51.982;5.878;2023-04-06T06:15:23;7.60;84.60
39033;DHT22;24794;51.982;5.878;2023-04-06T06:16:24;7.60;84.60
39033;DHT22;24794;51.982;5.878;2023-04-06T06:17:24;7.60;84.50
39033;DHT22;24794;51.982;5.878;2023-04-06T06:18:25;7.60;84.40
39033;DHT22;24794;51.982;5.878;2023-04-06T06:19:26;7.60;84.50
39033;DHT22;24794;51.982;5.878;2023-04-06T06:20:26;7.60;84.40
39033;DHT22;24794;51.982;5.878;2023-04-06T06:21:27;7.70;84.50
39033;DHT22;24794;51.982;5.878;2023-04-06T06:22:27;7.70;84.50
39033;DHT22;24794;51.982;5.878;2023-04-06T06:23:28;7.70;84.40
39033;DHT22;24794;51.982;5.878;2023-04-06T06:24:28;7.70;85.10
39033;DHT22;24794;51.982;5.878;2023-04-06T06:25:29;7.80;84.50
39033;DHT22;24794;51.982;5.878;2023-04-06T06:26:31;7.80;84.50
39033;DHT22;24794;51.982;5.878;2023-04-06T06:27:31;7.80;84.40
39033;DHT22;24794;51.982;5.878;2023-04-06T06:28:32;7.80;84.20
39033;DHT22;24794;51.982;5.878;2023-04-06T06:29:33;7.80;84.10
39033;DHT22;24794;51.982;5.878;2023-04-06T06:30:33;7.80;84.00